Startpagina
METAR-TAF:

METAR-TAF

Vliegvelden :

Groningen Airport Eelde

Groningen, Nederland

breedte: 53-08N, lengte: 006-35E, hoogte: 4 m

Actueel weer

Dit bericht is 38 minuten geleden gemaakt, om 18:25 UTC
Wind 2 kt uit het westzuidwesten
Temperatuur 17°C
Vochtigheid 77%
Druk 1013 hPa
Zicht 10 km of meer

METAR: EHGG 151825Z AUTO 24002KT 9999 NSC 17/13 Q1013 NOSIG

Tijdstip: 21:03 (19:03 UTC)

Verwachting

Dit bericht is 2 uur en het 11 minuten geleden gemaakt, om 16:52 UTC
Verwachting geldig van 15 om 18 UTC tot 16 om 24 UTC
Wind 3 kt uit variabele richting
Zicht 10 km of meer
geen wolken onder 1500 m en geen cumulonimbus
Kans 30%
van 16 om 00 UTC tot 16 om 07 UTC
Zicht: 5000 m
Ondiepe mist, nevel

TAF: EHGG 151652Z 1518/1624 VRB03KT CAVOK PROB30 1600/1607 5000 MIFG BR

Waarnemingen en weersverwachtingen van meer dan 4000 vliegvelden (METAR en TAF).

De beschikbare stations zijn de gele en rode punten op de kaart.

Ga met uw muis naar het station om de naam te zien.

Klik dan om waarnemingen en weersverwachtingen te zien.

kaart wijzigen: klik op de groene knoppen met een zwart kruis om in te zoomen, op de groene knop met een streepje om uit te zoomen of op de groene pijlen voor aangrenzende kaarten.


METAR-TAF: